Eton, Georgia
Current Conditions -  °F | °C
As of 10:55 AM on Sunday 23 Nov 2014 (Local Time) from KDNN Reporting Station
Moderate Rain Moderate Rain  
Wind Chill: 54°   Ceiling: 3900
Heat Index: 54°   Visibility: 5mi
Dew Point: 54°   Wind: 5mph
Humidity: 100%   Direction: 190°S
Pressure: 29.94"   Gusts: NA
Location:  34.83°N, 84.76°W
Report Text: KDNN 231555Z AUTO 19004KT 5SM RA SCT024 BKN039 OVC047 12/12 A2994 RMK AO2
Loading
Personal Weather Stations






























Interactive Weather Map New forecast layout! Learn more

10-Day Weather Forecast

Advertisements
Track Severe Weather on mobile